createdAt,value
2022-11-23T00:01:52.067Z,98104.19
2022-11-23T00:04:22.163Z,98098.81
2022-11-23T00:06:52.832Z,98098.00
2022-11-23T00:09:22.833Z,98104.72
2022-11-23T00:11:51.810Z,98085.88
2022-11-23T00:14:20.835Z,98087.75
2022-11-23T00:19:37.662Z,98079.94
2022-11-23T00:22:08.374Z,98093.41
2022-11-23T00:24:37.867Z,98089.09
2022-11-23T00:27:07.054Z,98095.28
2022-11-23T00:29:36.379Z,98114.94
2022-11-23T00:32:06.062Z,98109.00
2022-11-23T00:34:35.266Z,98102.81
2022-11-23T00:37:04.514Z,98095.53
2022-11-23T00:39:35.115Z,98096.63
2022-11-23T00:42:04.165Z,98109.28
2022-11-23T00:44:33.137Z,98100.63
2022-11-23T00:47:02.550Z,98119.19
2022-11-23T00:49:32.186Z,98121.38
2022-11-23T00:52:01.553Z,98121.38
2022-11-23T00:55:08.779Z,98135.63
2022-11-23T00:57:36.780Z,98135.06
2022-11-23T01:00:05.766Z,98127.00
2022-11-23T01:02:35.809Z,98136.97
2022-11-23T01:05:03.942Z,98136.97
2022-11-23T01:07:34.619Z,98135.63
2022-11-23T01:10:02.552Z,98138.88
2022-11-23T01:12:34.548Z,98132.66
2022-11-23T01:15:02.462Z,98128.91
2022-11-23T01:17:32.737Z,98132.66
2022-11-23T01:20:03.014Z,98134.31
2022-11-23T01:22:30.909Z,98137.00
2022-11-23T01:24:58.806Z,98140.50
2022-11-23T01:27:26.767Z,98135.09
2022-11-23T01:29:56.056Z,98130.53
2022-11-23T01:32:23.916Z,98121.91
2022-11-23T01:34:51.839Z,98119.47
2022-11-23T01:37:19.739Z,98123.78
2022-11-23T01:39:47.625Z,98128.91
2022-11-23T01:42:19.058Z,98127.28
2022-11-23T01:44:49.366Z,98141.28
2022-11-23T01:47:19.021Z,98145.88
2022-11-23T01:49:48.796Z,98134.31
2022-11-23T01:52:18.757Z,98132.66
2022-11-23T01:54:49.262Z,98128.13
2022-11-23T01:57:18.935Z,98138.03
2022-11-23T01:59:48.007Z,98129.97
2022-11-23T02:02:18.342Z,98125.66
2022-11-23T02:04:48.432Z,98131.63
2022-11-23T02:07:17.844Z,98125.66
2022-11-23T02:10:41.913Z,98133.50
2022-11-23T02:13:12.146Z,98129.69
2022-11-23T02:15:40.157Z,98148.53
2022-11-23T02:18:12.869Z,98143.44
2022-11-23T02:20:40.771Z,98157.69
2022-11-23T02:23:17.707Z,98158.50
2022-11-23T02:26:01.774Z,98164.44
2022-11-23T02:28:34.269Z,98153.66
2022-11-23T02:31:02.171Z,98161.75
2022-11-23T02:33:30.222Z,98166.06
2022-11-23T02:35:58.972Z,98180.31
2022-11-23T02:38:27.962Z,98175.22
2022-11-23T02:41:15.628Z,98178.94
2022-11-23T02:43:43.789Z,98175.22
2022-11-23T02:46:13.344Z,98181.13
2022-11-23T02:48:41.220Z,98187.59
2022-11-23T02:51:09.105Z,98180.03
2022-11-23T02:53:37.077Z,98182.97
2022-11-23T02:56:24.526Z,98194.56
2022-11-23T02:58:52.429Z,98197.50
2022-11-23T03:01:20.419Z,98206.16
2022-11-23T03:03:48.417Z,98204.50
2022-11-23T03:06:18.218Z,98196.44
2022-11-23T03:08:46.231Z,98190.50
2022-11-23T03:11:14.109Z,98179.75
2022-11-23T03:13:43.814Z,98181.59
2022-11-23T03:16:12.497Z,98175.16
2022-11-23T03:18:40.461Z,98173.53
2022-11-23T03:21:09.307Z,98169.22
2022-11-23T03:23:37.500Z,98167.63
2022-11-23T03:27:01.957Z,98181.06
2022-11-23T03:29:31.500Z,98186.19
2022-11-23T03:31:59.666Z,98182.69
2022-11-23T03:34:27.604Z,98181.06
2022-11-23T03:36:55.519Z,98171.13
2022-11-23T03:39:23.416Z,98174.59
2022-11-23T03:41:51.347Z,98170.59
2022-11-23T03:44:19.292Z,98171.41
2022-11-23T03:46:50.397Z,98168.97
2022-11-23T03:49:18.316Z,98179.47
2022-11-23T03:51:47.580Z,98176.53
2022-11-23T03:54:15.497Z,98182.16
2022-11-23T03:56:43.385Z,98186.50
2022-11-23T03:59:11.320Z,98189.19
2022-11-23T04:01:39.252Z,98202.66
2022-11-23T04:04:08.500Z,98194.56
2022-11-23T04:06:36.479Z,98195.38
2022-11-23T04:09:04.596Z,98203.19
2022-11-23T04:11:32.566Z,98203.69
2022-11-23T04:14:00.451Z,98205.34
2022-11-23T04:16:28.401Z,98201.56
2022-11-23T04:18:56.313Z,98201.56
2022-11-23T04:21:25.620Z,98200.75
2022-11-23T04:23:53.486Z,98212.34
2022-11-23T04:26:21.416Z,98199.44
2022-11-23T04:28:49.308Z,98205.63
2022-11-23T04:31:17.295Z,98199.44
2022-11-23T04:33:45.196Z,98200.50
2022-11-23T04:36:13.165Z,98197.78
2022-11-23T04:38:42.395Z,98196.19
2022-11-23T04:41:10.291Z,98189.47
2022-11-23T04:43:38.154Z,98190.28
2022-11-23T04:46:06.400Z,98188.66
2022-11-23T04:48:34.350Z,98190.28
2022-11-23T04:51:02.274Z,98195.66
2022-11-23T04:53:30.231Z,98198.88
2022-11-23T04:56:42.830Z,98206.16
2022-11-23T04:59:12.153Z,98207.47
2022-11-23T05:01:40.115Z,98207.47
2022-11-23T05:04:08.106Z,98216.59
2022-11-23T05:06:36.042Z,98215.78
2022-11-23T05:09:03.940Z,98217.69
2022-11-23T05:11:50.462Z,98218.47
2022-11-23T05:14:19.769Z,98224.94
2022-11-23T05:16:47.661Z,98221.44
2022-11-23T05:19:15.608Z,98221.44
2022-11-23T05:21:43.857Z,98222.25
2022-11-23T05:24:11.936Z,98220.38
2022-11-23T05:26:42.760Z,98216.59
2022-11-23T05:29:10.771Z,98234.38
2022-11-23T05:31:40.044Z,98227.13
2022-11-23T05:34:07.907Z,98221.97
2022-11-23T05:36:39.548Z,98219.28
2022-11-23T05:39:10.089Z,98218.25
2022-11-23T05:41:38.004Z,98212.06
2022-11-23T05:44:06.343Z,98221.97
2022-11-23T05:46:34.273Z,98218.75
2022-11-23T05:49:03.607Z,98222.50
2022-11-23T05:51:32.085Z,98231.66
2022-11-23T05:54:00.013Z,98237.84
2022-11-23T05:57:23.914Z,98241.63
2022-11-23T05:59:51.880Z,98248.84
2022-11-23T06:02:19.859Z,98254.00
2022-11-23T06:04:49.254Z,98259.63
2022-11-23T06:07:17.143Z,98265.00
2022-11-23T06:09:45.045Z,98258.56
2022-11-23T06:12:13.090Z,98258.56
2022-11-23T06:14:40.974Z,98263.94
2022-11-23T06:17:09.094Z,98262.06
2022-11-23T06:19:37.045Z,98268.25
2022-11-23T06:22:06.454Z,98265.56
2022-11-23T06:24:35.568Z,98276.34
2022-11-23T06:27:03.690Z,98273.63
2022-11-23T06:29:31.790Z,98278.50
2022-11-23T06:31:59.975Z,98283.66
2022-11-23T06:34:29.021Z,98291.72
2022-11-23T06:36:56.935Z,98283.41
2022-11-23T06:39:26.693Z,98286.91
2022-11-23T06:42:30.982Z,98287.94
2022-11-23T06:44:51.820Z,98289.59
2022-11-23T06:47:24.567Z,98284.22
2022-11-23T06:49:53.888Z,98288.78
2022-11-23T06:52:21.783Z,98285.00
2022-11-23T06:54:51.037Z,98283.13
2022-11-23T06:57:18.922Z,98275.31
2022-11-23T06:59:46.905Z,98277.75
2022-11-23T07:02:14.799Z,98273.16
2022-11-23T07:04:43.079Z,98274.25
2022-11-23T07:07:11.112Z,98283.94
2022-11-23T07:09:39.256Z,98291.47
2022-11-23T07:12:09.169Z,98287.72
2022-11-23T07:14:37.030Z,98292.28
2022-11-23T07:17:05.102Z,98292.28
2022-11-23T07:19:33.275Z,98296.88
2022-11-23T07:22:01.417Z,98299.28
2022-11-23T07:24:34.491Z,98296.03
2022-11-23T07:27:05.987Z,98287.72
2022-11-23T07:29:35.306Z,98290.41
2022-11-23T07:32:03.197Z,98286.09
2022-11-23T07:34:31.135Z,98294.69
2022-11-23T07:37:01.997Z,98301.72
2022-11-23T07:39:55.094Z,98303.34
2022-11-23T07:46:10.560Z,98302.81
2022-11-23T07:48:38.414Z,98299.09
2022-11-23T07:51:06.359Z,98306.09
2022-11-23T07:53:35.924Z,98311.47
2022-11-23T07:56:03.870Z,98311.22
2022-11-23T07:58:33.045Z,98315.78
2022-11-23T08:01:00.942Z,98311.22
2022-11-23T08:03:30.726Z,98308.53
2022-11-23T08:05:59.209Z,98311.47
2022-11-23T08:08:27.111Z,98317.66
2022-11-23T08:10:56.181Z,98322.25
2022-11-23T08:14:03.155Z,98322.25
2022-11-23T08:16:31.762Z,98322.25
2022-11-23T08:19:01.032Z,98331.13
2022-11-23T08:21:29.236Z,98330.06
2022-11-23T08:23:57.191Z,98334.13
2022-11-23T08:26:56.017Z,98328.75
2022-11-23T08:29:24.048Z,98329.56
2022-11-23T08:31:52.568Z,98327.66
2022-11-23T08:34:21.810Z,98331.97
2022-11-23T08:36:49.753Z,98322.84
2022-11-23T08:39:19.381Z,98335.50
2022-11-23T08:45:39.097Z,98330.13
2022-11-23T08:48:08.846Z,98318.28
2022-11-23T08:50:39.470Z,98331.50
2022-11-23T08:53:08.646Z,98332.28
2022-11-23T08:55:36.613Z,98333.09
2022-11-23T08:58:13.001Z,98328.78
2022-11-23T09:00:42.563Z,98327.72
2022-11-23T09:03:10.613Z,98327.72
2022-11-23T09:05:39.966Z,98338.22
2022-11-23T09:08:09.022Z,98331.78
2022-11-23T09:10:37.237Z,98333.38
2022-11-23T09:13:05.223Z,98341.22
2022-11-23T09:15:33.184Z,98342.84
2022-11-23T09:18:02.446Z,98342.31
2022-11-23T09:20:30.798Z,98347.72
2022-11-23T09:23:00.233Z,98378.97
2022-11-23T09:25:28.271Z,98386.25
2022-11-23T09:27:58.841Z,98380.88
2022-11-23T09:30:26.893Z,98378.41
2022-11-23T09:32:56.530Z,98383.81
2022-11-23T09:35:25.313Z,98388.94
2022-11-23T09:37:57.259Z,98386.50
2022-11-23T09:40:27.200Z,98391.06
2022-11-23T09:43:01.291Z,98407.47
2022-11-23T09:45:31.898Z,98395.09
2022-11-23T09:48:33.884Z,98392.41
2022-11-23T09:51:02.808Z,98395.09
2022-11-23T09:53:31.665Z,98393.19
2022-11-23T09:56:00.906Z,98391.59
2022-11-23T09:58:32.083Z,98390.75
2022-11-23T10:01:02.311Z,98404.22
2022-11-23T10:03:30.504Z,98409.59
2022-11-23T10:06:03.002Z,98410.69
2022-11-23T10:08:38.600Z,98414.19
2022-11-23T10:11:21.320Z,98425.75
2022-11-23T10:13:53.103Z,98421.22
2022-11-23T10:16:28.848Z,98420.38
2022-11-23T10:18:59.597Z,98426.59
2022-11-23T10:21:31.927Z,98428.22
2022-11-23T10:24:06.630Z,98422.81
2022-11-23T10:26:36.740Z,98429.03
2022-11-23T10:29:11.453Z,98424.72
2022-11-23T10:31:40.054Z,98426.59
2022-11-23T10:34:10.463Z,98427.41
2022-11-23T10:36:38.586Z,98419.56
2022-11-23T10:39:16.422Z,98430.34
2022-11-23T10:41:47.103Z,98439.22
2022-11-23T10:44:30.404Z,98444.06
2022-11-23T10:46:59.131Z,98442.44
2022-11-23T10:49:28.566Z,98445.13
2022-11-23T10:51:59.015Z,98442.69
2022-11-23T10:54:29.091Z,98445.41
2022-11-23T10:57:23.985Z,98447.28
2022-11-23T10:59:58.588Z,98453.72
2022-11-23T11:02:26.780Z,98468.25
2022-11-23T11:05:14.893Z,98461.22
2022-11-23T11:07:42.934Z,98473.88
2022-11-23T11:10:34.912Z,98477.13
2022-11-23T11:13:27.487Z,98481.44
2022-11-23T11:15:57.906Z,98482.53
2022-11-23T11:18:30.771Z,98484.41
2022-11-23T11:21:00.647Z,98483.09
2022-11-23T11:23:29.151Z,98482.81
2022-11-23T11:26:14.769Z,98481.78
2022-11-23T11:28:44.550Z,98484.47
2022-11-23T11:31:32.053Z,98485.28
2022-11-23T11:34:02.876Z,98487.16
2022-11-23T11:36:33.722Z,98497.94
2022-11-23T11:39:17.567Z,98494.16
2022-11-23T11:41:46.585Z,98491.47
2022-11-23T11:44:19.122Z,98486.09
2022-11-23T11:46:49.269Z,98496.84
2022-11-23T11:49:19.781Z,98487.69
2022-11-23T11:51:48.562Z,98488.78
2022-11-23T11:54:20.527Z,98495.78
2022-11-23T11:56:50.455Z,98491.47
2022-11-23T11:59:23.765Z,98493.94
2022-11-23T12:01:55.691Z,98497.66
2022-11-23T12:04:26.614Z,98494.16
2022-11-23T12:06:57.463Z,98493.09
2022-11-23T12:09:27.756Z,98499.56
2022-11-23T12:11:55.706Z,98493.34
2022-11-23T12:14:25.542Z,98498.47
2022-11-23T12:17:24.855Z,98502.81
2022-11-23T12:19:47.629Z,98505.50
2022-11-23T12:22:31.303Z,98508.19
2022-11-23T12:25:12.227Z,98505.75
2022-11-23T12:27:48.513Z,98512.22
2022-11-23T12:30:27.026Z,98511.94
2022-11-23T12:33:12.495Z,98521.91
2022-11-23T12:36:05.633Z,98530.25
2022-11-23T12:38:36.761Z,98537.50
2022-11-23T12:41:20.645Z,98542.88
2022-11-23T12:43:55.627Z,98539.38
2022-11-23T12:46:27.449Z,98542.34
2022-11-23T12:49:02.641Z,98546.91
2022-11-23T12:51:36.147Z,98547.72
2022-11-23T12:54:19.842Z,98547.16
2022-11-23T12:57:00.007Z,98554.41
2022-11-23T12:59:30.006Z,98558.72
2022-11-23T13:02:01.822Z,98564.38
2022-11-23T13:04:53.915Z,98562.75
2022-11-23T13:07:48.850Z,98556.03
2022-11-23T13:10:33.949Z,98564.94
2022-11-23T13:13:43.303Z,98563.06
2022-11-23T13:16:27.429Z,98560.38
2022-11-23T13:19:08.475Z,98569.25
2022-11-23T13:21:37.615Z,98566.81
2022-11-23T13:24:05.903Z,98573.00
2022-11-23T13:26:34.305Z,98580.28
2022-11-23T13:29:03.789Z,98582.97
2022-11-23T13:31:32.170Z,98593.75
2022-11-23T13:34:02.105Z,98598.56
2022-11-23T13:37:11.291Z,98602.91
2022-11-23T13:40:08.112Z,98609.31
2022-11-23T13:43:31.955Z,98617.41
2022-11-23T13:46:21.840Z,98623.06
2022-11-23T13:48:58.174Z,98628.69
2022-11-23T13:51:30.185Z,98625.97
2022-11-23T13:53:59.798Z,98627.88
2022-11-23T13:56:32.594Z,98627.88
2022-11-23T13:59:01.211Z,98636.75
2022-11-23T14:02:00.494Z,98645.09
2022-11-23T14:04:29.048Z,98651.28
2022-11-23T14:07:01.274Z,98653.97
2022-11-23T14:09:34.169Z,98667.44
2022-11-23T14:12:05.673Z,98663.09
2022-11-23T14:14:45.136Z,98669.06
2022-11-23T14:17:26.295Z,98661.00
2022-11-23T14:20:14.324Z,98669.88
2022-11-23T14:22:47.752Z,98673.63
2022-11-23T14:25:24.943Z,98673.41
2022-11-23T14:28:03.301Z,98678.53
2022-11-23T14:30:48.626Z,98674.22
2022-11-23T14:33:24.176Z,98677.13
2022-11-23T14:35:56.053Z,98678.22
2022-11-23T14:38:40.202Z,98689.56
2022-11-23T14:41:09.459Z,98689.00
2022-11-23T14:43:37.839Z,98688.19
2022-11-23T14:46:08.051Z,98684.66
2022-11-23T14:48:36.757Z,98680.91
2022-11-23T14:51:06.272Z,98689.00
2022-11-23T14:53:46.660Z,98695.41
2022-11-23T14:56:23.366Z,98706.19
2022-11-23T14:58:51.330Z,98701.63
2022-11-23T15:01:21.265Z,98700.00
2022-11-23T15:03:57.879Z,98700.00
2022-11-23T15:06:27.903Z,98706.19
2022-11-23T15:09:01.175Z,98707.84
2022-11-23T15:11:30.015Z,98704.56
2022-11-23T15:14:03.264Z,98716.97
2022-11-23T15:16:32.099Z,98720.72
2022-11-23T15:19:00.054Z,98724.50
2022-11-23T15:21:28.397Z,98731.50
2022-11-23T15:24:00.259Z,98727.72
2022-11-23T15:26:47.500Z,98727.72
2022-11-23T15:29:34.030Z,98737.19
2022-11-23T15:32:29.129Z,98731.00
2022-11-23T15:34:55.089Z,98729.94
2022-11-23T15:37:24.071Z,98738.03
2022-11-23T15:39:53.596Z,98741.78
2022-11-23T15:42:24.227Z,98735.56
2022-11-23T15:44:52.454Z,98742.84
2022-11-23T15:47:24.655Z,98742.84
2022-11-23T15:49:59.838Z,98754.66
2022-11-23T15:52:30.230Z,98749.28
2022-11-23T15:55:02.253Z,98760.88
2022-11-23T15:57:50.251Z,98767.31
2022-11-23T16:00:23.486Z,98771.66
2022-11-23T16:02:52.212Z,98782.66
2022-11-23T16:05:27.204Z,98783.72
2022-11-23T16:07:56.971Z,98784.53
2022-11-23T16:10:26.798Z,98789.91
2022-11-23T16:12:56.097Z,98796.13
2022-11-23T16:15:49.185Z,98801.50
2022-11-23T16:18:23.253Z,98792.63
2022-11-23T16:20:54.067Z,98797.19
2022-11-23T16:23:23.366Z,98803.38
2022-11-23T16:25:59.315Z,98804.19
2022-11-23T16:32:29.883Z,98817.66
2022-11-23T16:35:00.679Z,98807.69
2022-11-23T16:37:29.027Z,98814.72
2022-11-23T16:39:57.716Z,98817.97
2022-11-23T16:42:27.131Z,98817.44
2022-11-23T16:44:55.760Z,98822.56
2022-11-23T16:47:26.488Z,98823.63
2022-11-23T16:49:55.474Z,98814.72
2022-11-23T16:52:23.834Z,98824.66
2022-11-23T16:54:53.316Z,98827.13
2022-11-23T16:57:30.174Z,98827.13
2022-11-23T16:59:59.407Z,98830.06
2022-11-23T17:02:27.493Z,98836.50
2022-11-23T17:04:56.890Z,98835.44
2022-11-23T17:07:25.026Z,98840.81
2022-11-23T17:09:53.733Z,98844.34
2022-11-23T17:12:21.719Z,98847.03
2022-11-23T17:14:51.791Z,98848.09
2022-11-23T17:17:21.264Z,98849.97
2022-11-23T17:19:51.420Z,98846.22
2022-11-23T17:22:19.712Z,98848.91
2022-11-23T17:24:48.564Z,98855.34
2022-11-23T17:27:17.837Z,98866.13
2022-11-23T17:29:47.171Z,98866.13
2022-11-23T17:32:16.516Z,98873.13
2022-11-23T17:34:48.358Z,98872.09
2022-11-23T17:37:18.432Z,98871.28
2022-11-23T17:39:47.395Z,98875.59
2022-11-23T17:42:15.404Z,98878.53
2022-11-23T17:44:45.366Z,98877.47
2022-11-23T17:47:21.948Z,98882.59
2022-11-23T17:49:50.714Z,98883.69
2022-11-23T17:52:18.870Z,98888.84
2022-11-23T17:54:47.576Z,98886.13
2022-11-23T17:57:15.619Z,98885.31
2022-11-23T17:59:44.544Z,98888.00
2022-11-23T18:02:12.515Z,98898.75
2022-11-23T18:04:41.849Z,98895.03
2022-11-23T18:07:12.134Z,98894.22
2022-11-23T18:09:40.061Z,98893.16
2022-11-23T18:12:08.978Z,98891.53
2022-11-23T18:14:37.341Z,98889.66
2022-11-23T18:17:05.945Z,98890.47
2022-11-23T18:19:34.225Z,98895.84
2022-11-23T18:22:04.750Z,98894.78
2022-11-23T18:24:32.664Z,98897.47
2022-11-23T18:27:01.501Z,98898.31
2022-11-23T18:29:31.191Z,98902.84
2022-11-23T18:32:00.069Z,98904.50
2022-11-23T18:34:28.167Z,98908.25
2022-11-23T18:36:57.480Z,98902.84
2022-11-23T18:39:26.830Z,98908.25
2022-11-23T18:41:55.524Z,98914.47
2022-11-23T18:44:23.428Z,98910.13
2022-11-23T18:46:52.322Z,98907.44
2022-11-23T18:49:20.553Z,98916.56
2022-11-23T18:51:50.619Z,98918.19
2022-11-23T18:54:18.592Z,98916.56
2022-11-23T18:56:48.867Z,98920.06
2022-11-23T18:59:42.026Z,98922.78
2022-11-23T19:02:06.862Z,98923.84
2022-11-23T19:04:34.786Z,98921.16
2022-11-23T19:07:03.489Z,98928.97
2022-11-23T19:09:31.650Z,98924.41
2022-11-23T19:12:02.216Z,98921.69
2022-11-23T19:14:30.166Z,98928.97
2022-11-23T19:16:59.305Z,98929.78
2022-11-23T19:19:27.250Z,98923.34
2022-11-23T19:21:55.878Z,98926.06
2022-11-23T19:24:23.846Z,98931.44
2022-11-23T19:26:52.552Z,98926.84
2022-11-23T19:29:26.986Z,98934.72
2022-11-23T19:31:57.511Z,98940.09
2022-11-23T19:34:25.479Z,98925.56
2022-11-23T19:36:54.519Z,98942.31
2022-11-23T19:39:22.529Z,98950.38
2022-11-23T19:41:51.220Z,98950.38
2022-11-23T19:44:19.150Z,98950.38
2022-11-23T19:46:49.482Z,98949.31
2022-11-23T19:49:17.403Z,98952.00
2022-11-23T19:51:46.166Z,98952.00
2022-11-23T19:54:14.082Z,98958.47
2022-11-23T19:56:42.806Z,98965.47
2022-11-23T19:59:10.752Z,98978.94
2022-11-23T20:01:39.635Z,98968.16
2022-11-23T20:04:10.081Z,98968.97
2022-11-23T20:06:38.738Z,98979.75
2022-11-23T20:09:08.506Z,98983.50
2022-11-23T20:11:36.953Z,98987.59
2022-11-23T20:14:05.570Z,98996.28
2022-11-23T20:16:33.641Z,98989.81
2022-11-23T20:19:03.074Z,98999.50
2022-11-23T20:21:32.559Z,99004.91
2022-11-23T20:24:05.225Z,99000.34
2022-11-23T20:26:33.887Z,99009.25
2022-11-23T20:29:04.558Z,99009.25
2022-11-23T20:31:35.506Z,99018.16
2022-11-23T20:34:07.118Z,99013.56
2022-11-23T20:36:37.965Z,99019.53
2022-11-23T20:39:09.594Z,99016.84
2022-11-23T20:41:37.991Z,99019.53
2022-11-23T20:44:09.593Z,99028.22
2022-11-23T20:47:00.783Z,99026.31
2022-11-23T20:49:29.576Z,99037.09
2022-11-23T20:51:59.006Z,99034.41
2022-11-23T20:54:27.726Z,99036.84
2022-11-23T20:56:58.106Z,99041.19
2022-11-23T21:03:25.651Z,99035.81
2022-11-23T21:05:53.559Z,99044.94
2022-11-23T21:08:34.329Z,99043.88
2022-11-23T21:11:25.021Z,99049.84
2022-11-23T21:14:13.943Z,99049.84
2022-11-23T21:16:52.874Z,99049.84
2022-11-23T21:19:22.172Z,99051.47
2022-11-23T21:21:50.153Z,99050.69
2022-11-23T21:24:20.467Z,99051.47
2022-11-23T21:26:48.374Z,99055.00
2022-11-23T21:29:18.017Z,99059.34
2022-11-23T21:31:47.921Z,99058.28
2022-11-23T21:34:18.464Z,99061.78
2022-11-23T21:36:46.443Z,99059.91
2022-11-23T21:39:16.463Z,99059.66
2022-11-23T21:41:45.739Z,99063.19
2022-11-23T21:44:15.592Z,99069.63
2022-11-23T21:46:43.634Z,99066.69
2022-11-23T21:49:12.808Z,99067.28
2022-11-23T21:51:42.728Z,99074.53
2022-11-23T21:54:14.680Z,99072.66
2022-11-23T21:56:42.729Z,99069.97
2022-11-23T21:59:14.209Z,99076.16
2022-11-23T22:01:42.485Z,99082.38
2022-11-23T22:04:12.149Z,99088.59
2022-11-23T22:06:42.012Z,99076.41
2022-11-23T22:09:11.263Z,99086.94
2022-11-23T22:11:41.067Z,99090.72
2022-11-23T22:14:26.575Z,99088.81
2022-11-23T22:16:56.628Z,99095.28
2022-11-23T22:19:25.615Z,99090.72
2022-11-23T22:21:53.537Z,99090.72
2022-11-23T22:24:24.603Z,99096.91
2022-11-23T22:26:52.596Z,99082.84
2022-11-23T22:29:22.780Z,99089.09
2022-11-23T22:31:52.177Z,99098.19
2022-11-23T22:34:20.887Z,99094.69
2022-11-23T22:36:51.129Z,99096.56
2022-11-23T22:39:19.714Z,99101.16
2022-11-23T22:41:47.588Z,99094.09
2022-11-23T22:44:16.353Z,99100.31
2022-11-23T22:46:45.180Z,99104.06
2022-11-23T22:49:15.577Z,99097.88
2022-11-23T22:51:43.448Z,99104.31
2022-11-23T22:54:12.225Z,99100.78
2022-11-23T22:56:40.091Z,99092.97
2022-11-23T22:59:07.947Z,99103.75
2022-11-23T23:01:36.522Z,99103.75
2022-11-23T23:04:05.832Z,99104.78
2022-11-23T23:06:36.536Z,99102.09
2022-11-23T23:09:05.630Z,99116.63
2022-11-23T23:11:34.202Z,99105.84
2022-11-23T23:14:31.352Z,99110.16
2022-11-23T23:17:00.252Z,99107.47
2022-11-23T23:19:28.232Z,99118.25
2022-11-23T23:21:58.608Z,99109.38
2022-11-23T23:24:26.475Z,99112.88
2022-11-23T23:26:54.378Z,99108.28
2022-11-23T23:29:25.493Z,99110.16
2022-11-23T23:31:53.440Z,99123.66
2022-11-23T23:34:21.310Z,99118.25
2022-11-23T23:36:49.167Z,99122.00
2022-11-23T23:39:19.710Z,99125.75
2022-11-23T23:41:47.564Z,99125.75
2022-11-23T23:44:15.426Z,99124.13
2022-11-23T23:46:44.643Z,99129.50
2022-11-23T23:49:12.520Z,99127.88
2022-11-23T23:51:40.830Z,99127.88
2022-11-23T23:54:08.917Z,99128.91
2022-11-23T23:56:38.237Z,99131.63
2022-11-23T23:59:06.095Z,99138.06
